createdAt,value
2023-04-20T00:00:15.898Z,12.02
2023-04-20T00:03:21.750Z,11.50
2023-04-20T00:06:29.496Z,12.05
2023-04-20T00:09:34.372Z,12.15
2023-04-20T00:12:37.935Z,12.95
2023-04-20T00:15:41.167Z,11.85
2023-04-20T00:18:46.615Z,11.15
2023-04-20T00:21:50.008Z,11.68
2023-04-20T00:24:54.553Z,11.48
2023-04-20T00:27:58.282Z,11.70
2023-04-20T00:31:01.496Z,11.18
2023-04-20T00:34:04.972Z,12.48
2023-04-20T00:37:10.601Z,11.05
2023-04-20T00:40:15.349Z,11.48
2023-04-20T00:43:18.489Z,12.18
2023-04-20T00:46:22.922Z,11.88
2023-04-20T00:49:30.225Z,11.90
2023-04-20T00:52:34.164Z,11.70
2023-04-20T00:55:39.880Z,12.35
2023-04-20T00:58:43.962Z,12.25
2023-04-20T01:01:47.278Z,12.40
2023-04-20T01:04:51.430Z,12.68
2023-04-20T01:07:54.628Z,11.88
2023-04-20T01:10:59.341Z,12.45
2023-04-20T01:14:02.613Z,13.15
2023-04-20T01:17:07.923Z,12.23
2023-04-20T01:20:12.940Z,12.57
2023-04-20T01:23:18.034Z,12.18
2023-04-20T01:26:23.289Z,11.55
2023-04-20T01:29:27.445Z,11.25
2023-04-20T01:32:32.177Z,11.50
2023-04-20T01:35:36.460Z,11.07
2023-04-20T01:38:41.247Z,11.15
2023-04-20T01:41:44.482Z,11.27
2023-04-20T01:44:47.848Z,10.98
2023-04-20T01:47:51.656Z,11.18
2023-04-20T01:50:55.590Z,10.75
2023-04-20T01:54:00.168Z,10.48
2023-04-20T01:57:04.741Z,10.82
2023-04-20T02:03:43.328Z,10.48
2023-04-20T02:06:46.737Z,10.30
2023-04-20T02:09:51.493Z,11.45
2023-04-20T02:12:54.697Z,11.82
2023-04-20T02:15:58.066Z,11.25
2023-04-20T02:19:01.291Z,10.50
2023-04-20T02:22:04.585Z,10.77
2023-04-20T02:25:10.506Z,12.45
2023-04-20T02:28:13.794Z,11.45
2023-04-20T02:31:17.061Z,12.15
2023-04-20T02:34:21.476Z,13.00
2023-04-20T02:37:24.777Z,12.13
2023-04-20T02:40:29.459Z,10.88
2023-04-20T02:43:36.124Z,11.15
2023-04-20T02:46:41.016Z,9.85
2023-04-20T02:49:48.265Z,9.80
2023-04-20T02:52:52.452Z,9.98
2023-04-20T02:55:57.190Z,10.45
2023-04-20T02:59:15.969Z,9.65
2023-04-20T03:02:34.741Z,9.73
2023-04-20T03:05:39.416Z,10.20
2023-04-20T03:08:43.029Z,10.38
2023-04-20T03:12:06.797Z,11.60
2023-04-20T03:15:25.208Z,11.18
2023-04-20T03:18:39.608Z,9.85
2023-04-20T03:21:43.443Z,9.70
2023-04-20T03:24:50.260Z,10.40
2023-04-20T03:28:14.237Z,10.60
2023-04-20T03:31:17.883Z,9.63
2023-04-20T03:34:21.695Z,10.57
2023-04-20T03:37:24.935Z,10.43
2023-04-20T03:40:28.693Z,10.18
2023-04-20T03:43:33.289Z,10.23
2023-04-20T03:46:36.578Z,10.60
2023-04-20T03:49:39.782Z,10.90
2023-04-20T03:52:43.043Z,10.63
2023-04-20T03:55:47.082Z,10.23
2023-04-20T03:58:56.486Z,10.43
2023-04-20T04:02:02.651Z,9.52
2023-04-20T04:05:06.640Z,9.05
2023-04-20T04:08:10.002Z,9.40
2023-04-20T04:11:13.279Z,10.23
2023-04-20T04:14:18.330Z,9.07
2023-04-20T04:17:22.032Z,9.38
2023-04-20T04:20:25.365Z,9.55
2023-04-20T04:23:30.024Z,8.73
2023-04-20T04:26:40.640Z,9.35
2023-04-20T04:29:45.785Z,8.27
2023-04-20T04:32:54.335Z,6.18
2023-04-20T04:35:58.248Z,8.95
2023-04-20T04:42:31.151Z,8.40
2023-04-20T04:45:41.101Z,10.18
2023-04-20T04:48:47.130Z,9.85
2023-04-20T04:51:50.598Z,10.10
2023-04-20T04:54:53.986Z,8.68
2023-04-20T04:57:57.411Z,8.18
2023-04-20T05:01:02.088Z,8.38
2023-04-20T05:04:05.706Z,8.32
2023-04-20T05:07:10.344Z,8.48
2023-04-20T05:10:15.107Z,7.93
2023-04-20T05:13:18.501Z,7.68
2023-04-20T05:16:24.495Z,8.07
2023-04-20T05:19:27.808Z,7.80
2023-04-20T05:22:31.188Z,8.13
2023-04-20T05:25:34.519Z,8.07
2023-04-20T05:28:37.799Z,8.20
2023-04-20T05:31:42.486Z,7.82
2023-04-20T05:34:46.010Z,8.50
2023-04-20T05:37:49.397Z,8.00
2023-04-20T05:40:52.822Z,8.98
2023-04-20T05:43:56.846Z,8.63
2023-04-20T05:47:01.673Z,9.10
2023-04-20T05:50:05.872Z,8.50
2023-04-20T05:53:09.088Z,8.90
2023-04-20T05:56:12.423Z,8.10
2023-04-20T05:59:16.758Z,7.70
2023-04-20T06:02:21.652Z,7.80
2023-04-20T06:05:25.209Z,7.30
2023-04-20T06:08:28.458Z,6.78
2023-04-20T06:11:31.736Z,7.30
2023-04-20T06:14:35.630Z,6.75
2023-04-20T06:17:41.659Z,6.25
2023-04-20T06:20:45.369Z,6.15
2023-04-20T06:23:48.620Z,7.07
2023-04-20T06:26:52.312Z,6.13
2023-04-20T06:29:55.805Z,5.45
2023-04-20T06:33:00.686Z,6.03
2023-04-20T06:36:04.053Z,5.07
2023-04-20T06:39:07.740Z,5.35
2023-04-20T06:42:10.994Z,5.18
2023-04-20T06:45:15.587Z,5.30
2023-04-20T06:48:31.326Z,4.78
2023-04-20T06:51:35.896Z,4.70
2023-04-20T06:54:39.178Z,5.20
2023-04-20T06:57:43.820Z,6.20
2023-04-20T07:00:47.617Z,5.93
2023-04-20T07:03:52.799Z,4.93
2023-04-20T07:06:56.193Z,6.10
2023-04-20T07:09:59.484Z,5.60
2023-04-20T07:13:02.796Z,8.95
2023-04-20T07:16:06.647Z,4.85
2023-04-20T07:19:11.544Z,5.03
2023-04-20T07:22:15.274Z,6.70
2023-04-20T07:25:18.818Z,5.22
2023-04-20T07:28:22.201Z,5.18
2023-04-20T07:31:25.793Z,8.43
2023-04-20T07:34:30.972Z,6.10
2023-04-20T07:37:35.326Z,5.40
2023-04-20T07:40:38.557Z,4.50
2023-04-20T07:43:41.730Z,4.65
2023-04-20T07:46:45.008Z,5.60
2023-04-20T07:49:49.826Z,5.22
2023-04-20T07:52:52.984Z,4.82
2023-04-20T07:58:59.972Z,4.72
2023-04-20T08:02:04.440Z,4.88
2023-04-20T08:05:11.168Z,4.82
2023-04-20T08:08:14.811Z,4.60
2023-04-20T08:11:18.103Z,4.03
2023-04-20T08:14:21.418Z,4.78
2023-04-20T08:17:25.252Z,4.80
2023-04-20T08:20:30.105Z,3.85
2023-04-20T08:23:33.399Z,4.60
2023-04-20T08:26:37.985Z,3.85
2023-04-20T08:29:41.464Z,3.85
2023-04-20T08:32:44.828Z,4.40
2023-04-20T08:35:52.725Z,4.80
2023-04-20T08:38:58.769Z,4.20
2023-04-20T08:42:02.153Z,4.35
2023-04-20T08:45:05.794Z,3.95
2023-04-20T08:48:11.406Z,4.40
2023-04-20T08:51:17.127Z,4.30
2023-04-20T08:54:20.582Z,3.80
2023-04-20T08:57:24.681Z,3.95
2023-04-20T09:00:28.093Z,3.20
2023-04-20T09:03:35.963Z,3.97
2023-04-20T09:06:45.197Z,3.40
2023-04-20T09:09:56.377Z,3.50
2023-04-20T09:12:59.687Z,3.40
2023-04-20T09:16:12.872Z,4.10
2023-04-20T09:19:16.199Z,3.72
2023-04-20T09:22:31.295Z,6.13
2023-04-20T09:25:34.824Z,3.60
2023-04-20T09:28:40.050Z,3.63
2023-04-20T09:31:43.348Z,3.75
2023-04-20T09:34:46.610Z,3.70
2023-04-20T09:37:51.316Z,3.65
2023-04-20T09:40:54.973Z,3.50
2023-04-20T09:43:59.073Z,3.35
2023-04-20T09:47:02.367Z,3.60
2023-04-20T09:50:19.453Z,3.88
2023-04-20T09:53:28.213Z,3.45
2023-04-20T09:56:32.436Z,3.50
2023-04-20T09:59:36.145Z,3.40
2023-04-20T10:02:40.241Z,3.20
2023-04-20T10:05:43.973Z,3.60
2023-04-20T10:08:48.999Z,3.38
2023-04-20T10:11:54.547Z,3.22
2023-04-20T10:15:00.811Z,3.15
2023-04-20T10:18:04.265Z,3.50
2023-04-20T10:21:09.809Z,3.00
2023-04-20T10:24:14.689Z,3.53
2023-04-20T10:27:19.272Z,3.40
2023-04-20T10:30:24.101Z,3.45
2023-04-20T10:33:27.377Z,3.40
2023-04-20T10:36:32.220Z,4.63
2023-04-20T10:39:38.081Z,4.43
2023-04-20T10:42:44.835Z,4.15
2023-04-20T10:45:48.425Z,3.75
2023-04-20T10:48:53.023Z,4.07
2023-04-20T10:51:56.284Z,4.10
2023-04-20T10:55:00.970Z,4.20
2023-04-20T10:58:04.175Z,3.53
2023-04-20T11:01:07.595Z,4.07
2023-04-20T11:04:11.638Z,4.25
2023-04-20T11:07:14.863Z,4.22
2023-04-20T11:10:19.884Z,4.18
2023-04-20T11:13:25.396Z,4.00
2023-04-20T11:16:44.368Z,4.10
2023-04-20T11:19:52.043Z,4.10
2023-04-20T11:22:58.563Z,3.90
2023-04-20T11:26:03.179Z,4.15
2023-04-20T11:29:06.600Z,4.38
2023-04-20T11:32:11.362Z,4.22
2023-04-20T11:35:14.750Z,3.97
2023-04-20T11:38:28.574Z,4.75
2023-04-20T11:41:33.152Z,4.90
2023-04-20T11:44:37.024Z,5.10
2023-04-20T11:47:41.411Z,5.78
2023-04-20T11:50:44.688Z,5.05
2023-04-20T11:53:47.918Z,4.22
2023-04-20T11:56:52.649Z,4.55
2023-04-20T11:59:55.821Z,3.88
2023-04-20T12:02:59.890Z,4.18
2023-04-20T12:06:03.426Z,3.80
2023-04-20T12:09:07.269Z,4.25
2023-04-20T12:12:11.921Z,4.72
2023-04-20T12:15:15.144Z,3.70
2023-04-20T12:18:19.271Z,3.63
2023-04-20T12:21:22.601Z,3.75
2023-04-20T12:24:26.130Z,3.58
2023-04-20T12:27:30.796Z,4.00
2023-04-20T12:30:35.563Z,3.25
2023-04-20T12:33:38.833Z,3.58
2023-04-20T12:36:42.117Z,3.70
2023-04-20T12:39:45.408Z,3.45
2023-04-20T12:42:50.074Z,3.25
2023-04-20T12:45:53.534Z,3.10
2023-04-20T12:48:56.908Z,3.58
2023-04-20T12:52:00.225Z,3.20
2023-04-20T12:55:03.550Z,3.25
2023-04-20T12:58:08.186Z,3.15
2023-04-20T13:01:11.713Z,3.42
2023-04-20T13:04:15.935Z,4.40
2023-04-20T13:07:19.643Z,5.47
2023-04-20T13:10:22.929Z,6.22
2023-04-20T13:13:27.618Z,5.10
2023-04-20T13:16:30.996Z,5.03
2023-04-20T13:19:34.307Z,4.07
2023-04-20T13:22:50.470Z,4.10
2023-04-20T13:26:01.665Z,4.05
2023-04-20T13:29:06.554Z,4.25
2023-04-20T13:32:10.788Z,3.90
2023-04-20T13:35:14.870Z,3.70
2023-04-20T13:38:18.083Z,3.70
2023-04-20T13:41:21.922Z,3.50
2023-04-20T13:44:26.794Z,3.65
2023-04-20T13:47:30.294Z,3.70
2023-04-20T13:50:33.461Z,3.75
2023-04-20T13:53:37.112Z,3.53
2023-04-20T13:56:40.474Z,3.67
2023-04-20T13:59:45.100Z,3.85
2023-04-20T14:02:48.432Z,3.78
2023-04-20T14:05:51.968Z,3.28
2023-04-20T14:08:55.631Z,3.42
2023-04-20T14:11:59.304Z,3.42
2023-04-20T14:15:04.162Z,3.00
2023-04-20T14:18:07.867Z,3.95
2023-04-20T14:21:11.041Z,3.60
2023-04-20T14:24:15.132Z,3.47
2023-04-20T14:27:18.461Z,3.95
2023-04-20T14:30:23.301Z,3.50
2023-04-20T14:33:26.534Z,4.00
2023-04-20T14:36:30.162Z,3.60
2023-04-20T14:39:33.450Z,3.70
2023-04-20T14:42:36.791Z,3.28
2023-04-20T14:45:44.808Z,3.88
2023-04-20T14:48:48.310Z,3.80
2023-04-20T14:51:51.939Z,4.20
2023-04-20T14:54:55.546Z,3.67
2023-04-20T14:57:59.262Z,3.60
2023-04-20T15:01:03.978Z,4.20
2023-04-20T15:04:07.596Z,4.00
2023-04-20T15:07:11.192Z,3.97
2023-04-20T15:10:14.442Z,4.80
2023-04-20T15:13:18.014Z,4.40
2023-04-20T15:16:22.774Z,4.50
2023-04-20T15:19:26.174Z,4.70
2023-04-20T15:22:29.407Z,4.70
2023-04-20T15:25:32.681Z,4.40
2023-04-20T15:28:36.612Z,5.38
2023-04-20T15:31:43.399Z,4.53
2023-04-20T15:34:46.871Z,4.45
2023-04-20T15:37:50.193Z,4.50
2023-04-20T15:40:53.886Z,4.43
2023-04-20T15:43:57.121Z,4.38
2023-04-20T15:47:02.319Z,4.50
2023-04-20T15:50:07.902Z,4.47
2023-04-20T15:53:12.264Z,4.38
2023-04-20T15:56:15.669Z,5.03
2023-04-20T15:59:19.240Z,5.10
2023-04-20T16:02:24.180Z,4.80
2023-04-20T16:05:27.915Z,5.15
2023-04-20T16:08:31.684Z,5.05
2023-04-20T16:11:35.273Z,5.57
2023-04-20T16:14:38.569Z,5.13
2023-04-20T16:17:43.486Z,5.57
2023-04-20T16:20:46.867Z,5.72
2023-04-20T16:23:53.348Z,5.53
2023-04-20T16:27:00.721Z,5.25
2023-04-20T16:30:04.127Z,5.70
2023-04-20T16:33:08.991Z,6.80
2023-04-20T16:36:12.661Z,7.85
2023-04-20T16:39:15.954Z,8.10
2023-04-20T16:42:19.241Z,8.30
2023-04-20T16:45:22.495Z,7.22
2023-04-20T16:48:29.557Z,6.97
2023-04-20T16:51:33.283Z,7.03
2023-04-20T16:54:36.607Z,7.55
2023-04-20T16:57:40.010Z,6.20
2023-04-20T17:00:43.313Z,6.78
2023-04-20T17:03:48.494Z,7.30
2023-04-20T17:06:52.945Z,6.80
2023-04-20T17:09:56.398Z,7.30
2023-04-20T17:12:59.799Z,6.88
2023-04-20T17:16:03.294Z,8.18
2023-04-20T17:19:08.169Z,10.20
2023-04-20T17:22:11.590Z,10.60
2023-04-20T17:25:14.981Z,9.80
2023-04-20T17:28:18.324Z,10.90
2023-04-20T17:31:22.017Z,11.35
2023-04-20T17:34:27.277Z,12.02
2023-04-20T17:37:30.637Z,12.75
2023-04-20T17:40:34.320Z,12.77
2023-04-20T17:43:40.351Z,15.90
2023-04-20T17:46:43.903Z,17.33
2023-04-20T17:49:48.846Z,16.63
2023-04-20T17:52:52.632Z,15.07
2023-04-20T17:55:56.712Z,14.82
2023-04-20T17:59:01.209Z,15.27
2023-04-20T18:02:05.571Z,16.80
2023-04-20T18:05:13.066Z,17.38
2023-04-20T18:08:20.211Z,17.52
2023-04-20T18:11:27.348Z,19.52
2023-04-20T18:14:32.267Z,19.45
2023-04-20T18:17:36.612Z,19.55
2023-04-20T18:20:46.721Z,18.50
2023-04-20T18:23:52.632Z,17.33
2023-04-20T18:26:59.737Z,16.77
2023-04-20T18:30:04.379Z,14.88
2023-04-20T18:33:10.289Z,12.45
2023-04-20T18:36:17.842Z,13.48
2023-04-20T18:39:21.372Z,12.77
2023-04-20T18:42:24.851Z,13.15
2023-04-20T18:45:30.599Z,12.60
2023-04-20T18:48:34.113Z,13.43
2023-04-20T18:51:39.031Z,12.80
2023-04-20T18:54:42.567Z,12.65
2023-04-20T18:57:45.927Z,12.20
2023-04-20T19:00:49.925Z,12.45
2023-04-20T19:03:53.522Z,12.73
2023-04-20T19:06:58.456Z,12.52
2023-04-20T19:10:01.992Z,12.35
2023-04-20T19:13:05.464Z,12.25
2023-04-20T19:16:10.556Z,12.23
2023-04-20T19:19:17.082Z,13.60
2023-04-20T19:22:22.331Z,14.15
2023-04-20T19:25:25.776Z,14.73
2023-04-20T19:28:29.340Z,15.38
2023-04-20T19:31:37.500Z,14.13
2023-04-20T19:34:41.660Z,14.50
2023-04-20T19:37:46.436Z,12.90
2023-04-20T19:40:50.301Z,12.05
2023-04-20T19:43:53.814Z,12.43
2023-04-20T19:46:57.203Z,11.88
2023-04-20T19:50:02.148Z,11.13
2023-04-20T19:53:08.514Z,11.25
2023-04-20T19:56:12.067Z,10.50
2023-04-20T19:59:15.905Z,10.13
2023-04-20T20:02:19.598Z,10.52
2023-04-20T20:05:23.018Z,10.85
2023-04-20T20:08:27.855Z,10.52
2023-04-20T20:11:31.221Z,10.05
2023-04-20T20:14:36.426Z,10.77
2023-04-20T20:17:41.527Z,12.05
2023-04-20T20:20:46.127Z,12.35
2023-04-20T20:23:53.552Z,13.68
2023-04-20T20:26:57.647Z,13.43
2023-04-20T20:30:01.006Z,12.98
2023-04-20T20:33:04.815Z,12.30
2023-04-20T20:36:09.034Z,13.13
2023-04-20T20:39:14.217Z,12.07
2023-04-20T20:42:17.664Z,12.75
2023-04-20T20:45:21.849Z,12.98
2023-04-20T20:48:25.469Z,12.80
2023-04-20T20:51:28.704Z,12.88
2023-04-20T20:54:33.444Z,13.48
2023-04-20T20:57:37.023Z,13.77
2023-04-20T21:00:40.594Z,13.65
2023-04-20T21:03:44.262Z,14.05
2023-04-20T21:06:47.803Z,14.30
2023-04-20T21:09:53.980Z,14.45
2023-04-20T21:12:57.392Z,14.10
2023-04-20T21:16:01.018Z,13.13
2023-04-20T21:19:04.649Z,13.13
2023-04-20T21:22:08.132Z,13.95
2023-04-20T21:25:13.463Z,12.95
2023-04-20T21:28:16.918Z,12.85
2023-04-20T21:31:20.411Z,12.75
2023-04-20T21:34:23.852Z,13.05
2023-04-20T21:37:27.413Z,12.98
2023-04-20T21:40:34.294Z,12.75
2023-04-20T21:43:37.806Z,12.95
2023-04-20T21:46:41.400Z,13.35
2023-04-20T21:49:45.063Z,13.07
2023-04-20T21:52:48.713Z,13.85
2023-04-20T21:55:53.709Z,12.82
2023-04-20T21:58:57.180Z,12.88
2023-04-20T22:02:00.884Z,13.18
2023-04-20T22:05:04.843Z,13.98
2023-04-20T22:08:08.381Z,13.20
2023-04-20T22:11:14.082Z,13.60
2023-04-20T22:14:17.760Z,13.23
2023-04-20T22:17:21.872Z,13.35
2023-04-20T22:20:26.911Z,13.02
2023-04-20T22:23:30.433Z,12.77
2023-04-20T22:26:35.383Z,13.10
2023-04-20T22:29:38.857Z,13.70
2023-04-20T22:32:42.336Z,13.93
2023-04-20T22:35:45.889Z,13.68
2023-04-20T22:38:49.368Z,13.00
2023-04-20T22:41:54.325Z,13.13
2023-04-20T22:44:57.863Z,13.75
2023-04-20T22:48:01.577Z,13.57
2023-04-20T22:51:05.871Z,13.68
2023-04-20T22:54:09.261Z,13.23
2023-04-20T22:57:14.038Z,14.70
2023-04-20T23:00:17.874Z,14.02
2023-04-20T23:03:21.329Z,14.10
2023-04-20T23:06:24.836Z,14.23
2023-04-20T23:09:28.219Z,13.05
2023-04-20T23:12:33.624Z,14.23
2023-04-20T23:15:37.015Z,14.90
2023-04-20T23:18:40.496Z,14.88
2023-04-20T23:21:43.934Z,14.18
2023-04-20T23:24:47.332Z,13.73
2023-04-20T23:27:52.118Z,14.90
2023-04-20T23:30:55.532Z,14.95
2023-04-20T23:33:58.873Z,14.75
2023-04-20T23:37:02.293Z,15.18
2023-04-20T23:40:07.331Z,14.35
2023-04-20T23:43:12.168Z,14.80
2023-04-20T23:46:15.669Z,13.95
2023-04-20T23:49:19.322Z,14.15
2023-04-20T23:52:23.011Z,14.32
2023-04-20T23:55:26.899Z,14.27
2023-04-20T23:58:31.668Z,14.68
